sensor_id;sensor_type;location;lat;lon;timestamp;P1;durP1;ratioP1;P2;durP2;ratioP2
52564;SDS011;38460;53.106;7.004;2023-08-07T00:00:42;6.30;;;4.00;;
52564;SDS011;38460;53.106;7.004;2023-08-07T00:03:07;5.90;;;3.58;;
52564;SDS011;38460;53.106;7.004;2023-08-07T00:05:33;6.75;;;4.72;;
52564;SDS011;38460;53.106;7.004;2023-08-07T00:07:59;6.20;;;3.88;;
52564;SDS011;38460;53.106;7.004;2023-08-07T00:10:25;5.85;;;3.60;;
52564;SDS011;38460;53.106;7.004;2023-08-07T00:12:51;7.65;;;4.55;;
52564;SDS011;38460;53.106;7.004;2023-08-07T00:15:17;5.78;;;4.20;;
52564;SDS011;38460;53.106;7.004;2023-08-07T00:17:43;7.18;;;4.00;;
52564;SDS011;38460;53.106;7.004;2023-08-07T00:20:09;6.22;;;3.63;;
52564;SDS011;38460;53.106;7.004;2023-08-07T00:22:35;7.05;;;4.28;;
52564;SDS011;38460;53.106;7.004;2023-08-07T00:25:00;6.22;;;3.63;;
52564;SDS011;38460;53.106;7.004;2023-08-07T00:27:26;7.82;;;3.88;;
52564;SDS011;38460;53.106;7.004;2023-08-07T00:29:52;7.60;;;3.88;;
52564;SDS011;38460;53.106;7.004;2023-08-07T00:32:18;5.07;;;3.55;;
52564;SDS011;38460;53.106;7.004;2023-08-07T00:34:44;6.35;;;3.78;;
52564;SDS011;38460;53.106;7.004;2023-08-07T00:37:10;6.38;;;3.45;;
52564;SDS011;38460;53.106;7.004;2023-08-07T00:39:36;6.38;;;2.83;;
52564;SDS011;38460;53.106;7.004;2023-08-07T00:42:01;5.47;;;3.33;;
52564;SDS011;38460;53.106;7.004;2023-08-07T00:44:27;5.68;;;3.65;;
52564;SDS011;38460;53.106;7.004;2023-08-07T00:46:53;5.32;;;3.35;;
52564;SDS011;38460;53.106;7.004;2023-08-07T00:49:19;6.18;;;3.40;;
52564;SDS011;38460;53.106;7.004;2023-08-07T00:51:46;4.75;;;3.40;;
52564;SDS011;38460;53.106;7.004;2023-08-07T00:54:14;4.90;;;3.40;;
52564;SDS011;38460;53.106;7.004;2023-08-07T00:56:43;5.47;;;3.30;;
52564;SDS011;38460;53.106;7.004;2023-08-07T00:59:09;5.95;;;3.30;;
52564;SDS011;38460;53.106;7.004;2023-08-07T01:01:35;5.80;;;3.42;;
52564;SDS011;38460;53.106;7.004;2023-08-07T01:04:01;7.15;;;3.55;;
52564;SDS011;38460;53.106;7.004;2023-08-07T01:06:27;8.88;;;3.78;;
52564;SDS011;38460;53.106;7.004;2023-08-07T01:08:53;7.40;;;2.35;;
52564;SDS011;38460;53.106;7.004;2023-08-07T01:11:24;4.40;;;2.00;;
52564;SDS011;38460;53.106;7.004;2023-08-07T01:14:36;3.72;;;1.90;;
52564;SDS011;38460;53.106;7.004;2023-08-07T01:17:14;5.53;;;2.40;;
52564;SDS011;38460;53.106;7.004;2023-08-07T01:19:41;4.38;;;2.05;;
52564;SDS011;38460;53.106;7.004;2023-08-07T01:22:17;5.22;;;2.28;;
52564;SDS011;38460;53.106;7.004;2023-08-07T01:24:48;5.18;;;2.55;;
52564;SDS011;38460;53.106;7.004;2023-08-07T01:29:48;4.65;;;2.80;;
52564;SDS011;38460;53.106;7.004;2023-08-07T01:32:38;8.23;;;4.00;;
52564;SDS011;38460;53.106;7.004;2023-08-07T01:35:25;4.68;;;3.13;;
52564;SDS011;38460;53.106;7.004;2023-08-07T01:37:54;4.90;;;2.92;;
52564;SDS011;38460;53.106;7.004;2023-08-07T01:40:22;5.97;;;3.40;;
52564;SDS011;38460;53.106;7.004;2023-08-07T01:42:48;5.22;;;2.63;;
52564;SDS011;38460;53.106;7.004;2023-08-07T01:45:21;7.65;;;3.33;;
52564;SDS011;38460;53.106;7.004;2023-08-07T01:47:51;5.32;;;2.75;;
52564;SDS011;38460;53.106;7.004;2023-08-07T01:50:21;5.53;;;3.17;;
52564;SDS011;38460;53.106;7.004;2023-08-07T01:52:47;7.22;;;3.25;;
52564;SDS011;38460;53.106;7.004;2023-08-07T01:55:13;8.50;;;3.80;;
52564;SDS011;38460;53.106;7.004;2023-08-07T01:57:42;5.70;;;2.60;;
52564;SDS011;38460;53.106;7.004;2023-08-07T02:00:08;7.75;;;3.08;;
52564;SDS011;38460;53.106;7.004;2023-08-07T02:02:34;6.75;;;3.75;;
52564;SDS011;38460;53.106;7.004;2023-08-07T02:05:01;4.65;;;3.00;;
52564;SDS011;38460;53.106;7.004;2023-08-07T02:07:26;6.97;;;3.60;;
52564;SDS011;38460;53.106;7.004;2023-08-07T02:09:52;7.65;;;3.92;;
52564;SDS011;38460;53.106;7.004;2023-08-07T02:12:18;8.00;;;4.88;;
52564;SDS011;38460;53.106;7.004;2023-08-07T02:14:44;9.77;;;5.10;;
52564;SDS011;38460;53.106;7.004;2023-08-07T02:17:09;11.05;;;4.78;;
52564;SDS011;38460;53.106;7.004;2023-08-07T02:19:35;8.77;;;4.55;;
52564;SDS011;38460;53.106;7.004;2023-08-07T02:22:01;8.25;;;4.82;;
52564;SDS011;38460;53.106;7.004;2023-08-07T02:24:27;8.25;;;3.75;;
52564;SDS011;38460;53.106;7.004;2023-08-07T02:26:53;7.53;;;3.65;;
52564;SDS011;38460;53.106;7.004;2023-08-07T02:29:18;6.20;;;3.15;;
52564;SDS011;38460;53.106;7.004;2023-08-07T02:31:44;7.47;;;3.50;;
52564;SDS011;38460;53.106;7.004;2023-08-07T02:34:10;10.45;;;3.75;;
52564;SDS011;38460;53.106;7.004;2023-08-07T02:36:36;6.20;;;3.22;;
52564;SDS011;38460;53.106;7.004;2023-08-07T02:39:01;7.20;;;3.80;;
52564;SDS011;38460;53.106;7.004;2023-08-07T02:41:27;8.25;;;3.40;;
52564;SDS011;38460;53.106;7.004;2023-08-07T02:43:53;8.10;;;3.90;;
52564;SDS011;38460;53.106;7.004;2023-08-07T02:46:19;19.38;;;13.02;;
52564;SDS011;38460;53.106;7.004;2023-08-07T02:48:44;24.77;;;14.95;;
52564;SDS011;38460;53.106;7.004;2023-08-07T02:51:10;30.75;;;19.65;;
52564;SDS011;38460;53.106;7.004;2023-08-07T02:53:36;29.80;;;20.15;;
52564;SDS011;38460;53.106;7.004;2023-08-07T02:56:01;22.52;;;16.02;;
52564;SDS011;38460;53.106;7.004;2023-08-07T02:58:27;26.00;;;17.65;;
52564;SDS011;38460;53.106;7.004;2023-08-07T03:00:53;22.90;;;16.83;;
52564;SDS011;38460;53.106;7.004;2023-08-07T03:03:19;26.90;;;17.90;;
52564;SDS011;38460;53.106;7.004;2023-08-07T03:05:48;25.98;;;17.30;;
52564;SDS011;38460;53.106;7.004;2023-08-07T03:08:15;25.60;;;18.42;;
52564;SDS011;38460;53.106;7.004;2023-08-07T03:10:41;24.75;;;16.92;;
52564;SDS011;38460;53.106;7.004;2023-08-07T03:13:06;31.23;;;20.20;;
52564;SDS011;38460;53.106;7.004;2023-08-07T03:15:32;35.10;;;23.70;;
52564;SDS011;38460;53.106;7.004;2023-08-07T03:17:58;28.65;;;20.38;;
52564;SDS011;38460;53.106;7.004;2023-08-07T03:20:24;38.72;;;26.98;;
52564;SDS011;38460;53.106;7.004;2023-08-07T03:22:50;39.20;;;26.42;;
52564;SDS011;38460;53.106;7.004;2023-08-07T03:25:15;38.78;;;25.55;;
52564;SDS011;38460;53.106;7.004;2023-08-07T03:27:42;38.88;;;23.17;;
52564;SDS011;38460;53.106;7.004;2023-08-07T03:30:08;41.95;;;25.75;;
52564;SDS011;38460;53.106;7.004;2023-08-07T03:32:34;30.77;;;19.42;;
52564;SDS011;38460;53.106;7.004;2023-08-07T03:35:00;41.15;;;24.42;;
52564;SDS011;38460;53.106;7.004;2023-08-07T03:37:26;44.05;;;27.05;;
52564;SDS011;38460;53.106;7.004;2023-08-07T03:39:51;44.47;;;29.48;;
52564;SDS011;38460;53.106;7.004;2023-08-07T03:42:17;40.25;;;26.73;;
52564;SDS011;38460;53.106;7.004;2023-08-07T03:44:43;48.40;;;32.70;;
52564;SDS011;38460;53.106;7.004;2023-08-07T03:47:09;48.70;;;32.83;;
52564;SDS011;38460;53.106;7.004;2023-08-07T03:49:35;41.65;;;28.77;;
52564;SDS011;38460;53.106;7.004;2023-08-07T03:52:00;45.67;;;30.38;;
52564;SDS011;38460;53.106;7.004;2023-08-07T03:54:26;47.03;;;30.83;;
52564;SDS011;38460;53.106;7.004;2023-08-07T03:56:52;49.40;;;30.73;;
52564;SDS011;38460;53.106;7.004;2023-08-07T03:59:17;45.60;;;29.00;;
52564;SDS011;38460;53.106;7.004;2023-08-07T04:01:43;37.28;;;23.55;;
52564;SDS011;38460;53.106;7.004;2023-08-07T04:04:09;36.53;;;23.25;;
52564;SDS011;38460;53.106;7.004;2023-08-07T04:06:34;34.95;;;21.08;;
52564;SDS011;38460;53.106;7.004;2023-08-07T04:09:00;18.88;;;11.13;;
52564;SDS011;38460;53.106;7.004;2023-08-07T04:11:28;10.20;;;5.95;;
52564;SDS011;38460;53.106;7.004;2023-08-07T04:13:54;10.65;;;6.80;;
52564;SDS011;38460;53.106;7.004;2023-08-07T04:16:20;10.23;;;4.07;;
52564;SDS011;38460;53.106;7.004;2023-08-07T04:18:46;8.77;;;3.88;;
52564;SDS011;38460;53.106;7.004;2023-08-07T04:21:12;15.38;;;4.32;;
52564;SDS011;38460;53.106;7.004;2023-08-07T04:23:38;9.40;;;3.85;;
52564;SDS011;38460;53.106;7.004;2023-08-07T04:26:04;9.82;;;4.13;;
52564;SDS011;38460;53.106;7.004;2023-08-07T04:28:29;9.35;;;3.90;;
52564;SDS011;38460;53.106;7.004;2023-08-07T04:30:55;7.53;;;3.28;;
52564;SDS011;38460;53.106;7.004;2023-08-07T04:33:21;6.72;;;3.58;;
52564;SDS011;38460;53.106;7.004;2023-08-07T04:35:47;7.95;;;3.05;;
52564;SDS011;38460;53.106;7.004;2023-08-07T04:38:13;5.22;;;2.50;;
52564;SDS011;38460;53.106;7.004;2023-08-07T04:40:46;5.78;;;2.63;;
52564;SDS011;38460;53.106;7.004;2023-08-07T04:43:15;6.65;;;2.38;;
52564;SDS011;38460;53.106;7.004;2023-08-07T04:45:42;5.43;;;2.45;;
52564;SDS011;38460;53.106;7.004;2023-08-07T04:48:10;4.78;;;2.40;;
52564;SDS011;38460;53.106;7.004;2023-08-07T04:50:36;7.50;;;3.33;;
52564;SDS011;38460;53.106;7.004;2023-08-07T04:53:04;6.97;;;2.85;;
52564;SDS011;38460;53.106;7.004;2023-08-07T04:55:30;8.57;;;3.17;;
52564;SDS011;38460;53.106;7.004;2023-08-07T04:57:56;5.40;;;2.45;;
52564;SDS011;38460;53.106;7.004;2023-08-07T05:00:22;12.43;;;3.05;;
52564;SDS011;38460;53.106;7.004;2023-08-07T05:02:48;8.90;;;2.92;;
52564;SDS011;38460;53.106;7.004;2023-08-07T05:05:15;4.07;;;1.92;;
52564;SDS011;38460;53.106;7.004;2023-08-07T05:07:41;5.72;;;2.33;;
52564;SDS011;38460;53.106;7.004;2023-08-07T05:10:08;6.35;;;2.92;;
52564;SDS011;38460;53.106;7.004;2023-08-07T05:12:34;9.23;;;2.63;;
52564;SDS011;38460;53.106;7.004;2023-08-07T05:15:00;5.22;;;2.30;;
52564;SDS011;38460;53.106;7.004;2023-08-07T05:17:26;11.77;;;3.78;;
52564;SDS011;38460;53.106;7.004;2023-08-07T05:19:52;6.68;;;2.83;;
52564;SDS011;38460;53.106;7.004;2023-08-07T05:22:18;6.03;;;2.83;;
52564;SDS011;38460;53.106;7.004;2023-08-07T05:24:43;9.30;;;3.30;;
52564;SDS011;38460;53.106;7.004;2023-08-07T05:27:10;9.13;;;3.45;;
52564;SDS011;38460;53.106;7.004;2023-08-07T05:29:36;9.75;;;3.42;;
52564;SDS011;38460;53.106;7.004;2023-08-07T05:32:09;13.88;;;3.83;;
52564;SDS011;38460;53.106;7.004;2023-08-07T05:34:35;9.07;;;3.70;;
52564;SDS011;38460;53.106;7.004;2023-08-07T05:37:01;8.30;;;3.05;;
52564;SDS011;38460;53.106;7.004;2023-08-07T05:39:27;7.60;;;3.45;;
52564;SDS011;38460;53.106;7.004;2023-08-07T05:41:52;8.50;;;3.47;;
52564;SDS011;38460;53.106;7.004;2023-08-07T05:44:19;9.13;;;3.78;;
52564;SDS011;38460;53.106;7.004;2023-08-07T05:46:45;10.00;;;3.00;;
52564;SDS011;38460;53.106;7.004;2023-08-07T05:49:11;8.45;;;4.85;;
52564;SDS011;38460;53.106;7.004;2023-08-07T05:51:37;8.98;;;3.72;;
52564;SDS011;38460;53.106;7.004;2023-08-07T05:54:02;8.93;;;3.47;;
52564;SDS011;38460;53.106;7.004;2023-08-07T05:56:28;13.45;;;3.42;;
52564;SDS011;38460;53.106;7.004;2023-08-07T05:58:54;9.70;;;4.05;;
52564;SDS011;38460;53.106;7.004;2023-08-07T06:01:19;11.45;;;3.42;;
52564;SDS011;38460;53.106;7.004;2023-08-07T06:03:45;8.85;;;3.50;;
52564;SDS011;38460;53.106;7.004;2023-08-07T06:06:12;13.57;;;3.83;;
52564;SDS011;38460;53.106;7.004;2023-08-07T06:08:38;11.68;;;4.05;;
52564;SDS011;38460;53.106;7.004;2023-08-07T06:11:03;21.90;;;3.92;;
52564;SDS011;38460;53.106;7.004;2023-08-07T06:13:30;9.07;;;3.38;;
52564;SDS011;38460;53.106;7.004;2023-08-07T06:15:56;14.68;;;4.15;;
52564;SDS011;38460;53.106;7.004;2023-08-07T06:18:22;12.73;;;3.28;;
52564;SDS011;38460;53.106;7.004;2023-08-07T06:20:47;12.85;;;4.10;;
52564;SDS011;38460;53.106;7.004;2023-08-07T06:23:13;11.20;;;3.97;;
52564;SDS011;38460;53.106;7.004;2023-08-07T06:25:39;10.48;;;3.60;;
52564;SDS011;38460;53.106;7.004;2023-08-07T06:28:04;10.88;;;4.07;;
52564;SDS011;38460;53.106;7.004;2023-08-07T06:30:33;10.82;;;3.40;;
52564;SDS011;38460;53.106;7.004;2023-08-07T06:32:59;11.45;;;3.88;;
52564;SDS011;38460;53.106;7.004;2023-08-07T06:35:25;11.40;;;3.50;;
52564;SDS011;38460;53.106;7.004;2023-08-07T06:37:50;11.40;;;3.90;;
52564;SDS011;38460;53.106;7.004;2023-08-07T06:40:16;8.88;;;2.90;;
52564;SDS011;38460;53.106;7.004;2023-08-07T06:42:42;10.13;;;3.75;;
52564;SDS011;38460;53.106;7.004;2023-08-07T06:45:07;9.82;;;3.90;;
52564;SDS011;38460;53.106;7.004;2023-08-07T06:47:33;9.98;;;3.72;;
52564;SDS011;38460;53.106;7.004;2023-08-07T06:49:59;10.82;;;3.10;;
52564;SDS011;38460;53.106;7.004;2023-08-07T06:52:25;13.52;;;3.72;;
52564;SDS011;38460;53.106;7.004;2023-08-07T06:54:50;11.55;;;3.40;;
52564;SDS011;38460;53.106;7.004;2023-08-07T06:57:17;10.20;;;4.25;;
52564;SDS011;38460;53.106;7.004;2023-08-07T06:59:43;13.07;;;4.13;;
52564;SDS011;38460;53.106;7.004;2023-08-07T07:02:09;13.32;;;3.63;;
52564;SDS011;38460;53.106;7.004;2023-08-07T07:04:35;7.45;;;3.10;;
52564;SDS011;38460;53.106;7.004;2023-08-07T07:07:01;13.68;;;3.38;;
52564;SDS011;38460;53.106;7.004;2023-08-07T07:09:28;10.15;;;3.22;;
52564;SDS011;38460;53.106;7.004;2023-08-07T07:11:54;15.85;;;3.92;;
52564;SDS011;38460;53.106;7.004;2023-08-07T07:14:20;12.98;;;3.55;;
52564;SDS011;38460;53.106;7.004;2023-08-07T07:16:46;10.13;;;2.70;;
52564;SDS011;38460;53.106;7.004;2023-08-07T07:19:12;9.35;;;3.25;;
52564;SDS011;38460;53.106;7.004;2023-08-07T07:21:38;8.88;;;2.42;;
52564;SDS011;38460;53.106;7.004;2023-08-07T07:24:04;6.20;;;2.67;;
52564;SDS011;38460;53.106;7.004;2023-08-07T07:26:30;18.58;;;4.30;;
52564;SDS011;38460;53.106;7.004;2023-08-07T07:28:56;8.43;;;2.90;;
52564;SDS011;38460;53.106;7.004;2023-08-07T07:31:21;11.07;;;3.13;;
52564;SDS011;38460;53.106;7.004;2023-08-07T07:33:47;6.97;;;2.72;;
52564;SDS011;38460;53.106;7.004;2023-08-07T07:36:16;9.25;;;2.83;;
52564;SDS011;38460;53.106;7.004;2023-08-07T07:38:47;8.13;;;3.20;;
52564;SDS011;38460;53.106;7.004;2023-08-07T07:41:16;10.40;;;3.58;;
52564;SDS011;38460;53.106;7.004;2023-08-07T07:43:42;10.13;;;3.08;;
52564;SDS011;38460;53.106;7.004;2023-08-07T07:46:08;9.05;;;3.60;;
52564;SDS011;38460;53.106;7.004;2023-08-07T07:48:34;8.35;;;3.00;;
52564;SDS011;38460;53.106;7.004;2023-08-07T07:51:02;7.85;;;2.88;;
52564;SDS011;38460;53.106;7.004;2023-08-07T07:53:29;7.57;;;3.20;;
52564;SDS011;38460;53.106;7.004;2023-08-07T07:55:55;11.25;;;3.38;;
52564;SDS011;38460;53.106;7.004;2023-08-07T07:58:21;9.45;;;3.72;;
52564;SDS011;38460;53.106;7.004;2023-08-07T08:00:47;10.23;;;3.40;;
52564;SDS011;38460;53.106;7.004;2023-08-07T08:03:13;7.85;;;3.20;;
52564;SDS011;38460;53.106;7.004;2023-08-07T08:05:39;9.85;;;3.13;;
52564;SDS011;38460;53.106;7.004;2023-08-07T08:08:08;11.00;;;3.28;;
52564;SDS011;38460;53.106;7.004;2023-08-07T08:10:34;7.05;;;2.90;;
52564;SDS011;38460;53.106;7.004;2023-08-07T08:12:59;8.63;;;3.17;;
52564;SDS011;38460;53.106;7.004;2023-08-07T08:15:25;8.20;;;3.13;;
52564;SDS011;38460;53.106;7.004;2023-08-07T08:17:51;8.68;;;2.70;;
52564;SDS011;38460;53.106;7.004;2023-08-07T08:20:17;10.25;;;2.90;;
52564;SDS011;38460;53.106;7.004;2023-08-07T08:22:44;6.30;;;2.88;;
52564;SDS011;38460;53.106;7.004;2023-08-07T08:25:10;8.65;;;2.72;;
52564;SDS011;38460;53.106;7.004;2023-08-07T08:27:39;10.10;;;2.80;;
52564;SDS011;38460;53.106;7.004;2023-08-07T08:30:05;10.40;;;2.63;;
52564;SDS011;38460;53.106;7.004;2023-08-07T08:32:31;6.15;;;2.58;;
52564;SDS011;38460;53.106;7.004;2023-08-07T08:34:57;8.27;;;2.30;;
52564;SDS011;38460;53.106;7.004;2023-08-07T08:37:23;7.68;;;3.15;;
52564;SDS011;38460;53.106;7.004;2023-08-07T08:39:49;11.88;;;2.67;;
52564;SDS011;38460;53.106;7.004;2023-08-07T08:42:15;4.38;;;2.38;;
52564;SDS011;38460;53.106;7.004;2023-08-07T08:44:48;7.57;;;2.78;;
52564;SDS011;38460;53.106;7.004;2023-08-07T08:47:17;6.90;;;2.65;;
52564;SDS011;38460;53.106;7.004;2023-08-07T08:49:47;6.75;;;2.33;;
52564;SDS011;38460;53.106;7.004;2023-08-07T08:52:26;5.65;;;2.55;;
52564;SDS011;38460;53.106;7.004;2023-08-07T08:54:53;7.10;;;2.60;;
52564;SDS011;38460;53.106;7.004;2023-08-07T08:57:20;7.18;;;2.40;;
52564;SDS011;38460;53.106;7.004;2023-08-07T08:59:47;6.63;;;2.45;;
52564;SDS011;38460;53.106;7.004;2023-08-07T09:02:14;12.45;;;4.18;;
52564;SDS011;38460;53.106;7.004;2023-08-07T09:04:41;8.82;;;3.17;;
52564;SDS011;38460;53.106;7.004;2023-08-07T09:07:07;8.98;;;2.80;;
52564;SDS011;38460;53.106;7.004;2023-08-07T09:09:34;6.70;;;3.30;;
52564;SDS011;38460;53.106;7.004;2023-08-07T09:12:00;8.57;;;2.70;;
52564;SDS011;38460;53.106;7.004;2023-08-07T09:14:28;12.45;;;3.45;;
52564;SDS011;38460;53.106;7.004;2023-08-07T09:16:58;7.78;;;2.75;;
52564;SDS011;38460;53.106;7.004;2023-08-07T09:19:26;7.43;;;3.05;;
52564;SDS011;38460;53.106;7.004;2023-08-07T09:21:52;9.90;;;3.50;;
52564;SDS011;38460;53.106;7.004;2023-08-07T09:24:18;10.63;;;2.95;;
52564;SDS011;38460;53.106;7.004;2023-08-07T09:26:46;9.57;;;2.60;;
52564;SDS011;38460;53.106;7.004;2023-08-07T09:29:13;8.55;;;3.00;;
52564;SDS011;38460;53.106;7.004;2023-08-07T09:31:39;6.50;;;3.22;;
52564;SDS011;38460;53.106;7.004;2023-08-07T09:34:10;10.55;;;3.17;;
52564;SDS011;38460;53.106;7.004;2023-08-07T09:36:37;7.55;;;2.42;;
52564;SDS011;38460;53.106;7.004;2023-08-07T09:39:03;5.45;;;2.10;;
52564;SDS011;38460;53.106;7.004;2023-08-07T09:41:29;6.35;;;2.33;;
52564;SDS011;38460;53.106;7.004;2023-08-07T09:43:58;10.65;;;2.88;;
52564;SDS011;38460;53.106;7.004;2023-08-07T09:46:42;7.43;;;2.80;;
52564;SDS011;38460;53.106;7.004;2023-08-07T09:49:08;9.93;;;2.97;;
52564;SDS011;38460;53.106;7.004;2023-08-07T09:51:41;8.38;;;3.05;;
52564;SDS011;38460;53.106;7.004;2023-08-07T09:54:11;7.65;;;2.60;;
52564;SDS011;38460;53.106;7.004;2023-08-07T09:56:37;6.95;;;2.58;;
52564;SDS011;38460;53.106;7.004;2023-08-07T09:59:06;8.52;;;3.00;;
52564;SDS011;38460;53.106;7.004;2023-08-07T10:01:33;10.60;;;3.22;;
52564;SDS011;38460;53.106;7.004;2023-08-07T10:04:01;11.07;;;2.90;;
52564;SDS011;38460;53.106;7.004;2023-08-07T10:06:27;8.45;;;2.90;;
52564;SDS011;38460;53.106;7.004;2023-08-07T10:08:54;7.50;;;3.22;;
52564;SDS011;38460;53.106;7.004;2023-08-07T10:11:21;5.57;;;2.30;;
52564;SDS011;38460;53.106;7.004;2023-08-07T10:13:48;7.82;;;2.05;;
52564;SDS011;38460;53.106;7.004;2023-08-07T10:16:14;10.32;;;2.35;;
52564;SDS011;38460;53.106;7.004;2023-08-07T10:18:43;6.75;;;2.78;;
52564;SDS011;38460;53.106;7.004;2023-08-07T10:21:08;8.15;;;2.55;;
52564;SDS011;38460;53.106;7.004;2023-08-07T10:23:35;9.15;;;2.80;;
52564;SDS011;38460;53.106;7.004;2023-08-07T10:26:04;5.68;;;1.92;;
52564;SDS011;38460;53.106;7.004;2023-08-07T10:28:33;6.90;;;2.35;;
52564;SDS011;38460;53.106;7.004;2023-08-07T10:31:05;5.80;;;2.60;;
52564;SDS011;38460;53.106;7.004;2023-08-07T10:33:33;8.60;;;2.35;;
52564;SDS011;38460;53.106;7.004;2023-08-07T10:35:59;6.40;;;2.35;;
52564;SDS011;38460;53.106;7.004;2023-08-07T10:38:25;6.63;;;2.35;;
52564;SDS011;38460;53.106;7.004;2023-08-07T10:43:26;6.90;;;2.58;;
52564;SDS011;38460;53.106;7.004;2023-08-07T10:45:54;11.93;;;2.70;;
52564;SDS011;38460;53.106;7.004;2023-08-07T10:48:27;7.40;;;2.58;;
52564;SDS011;38460;53.106;7.004;2023-08-07T10:56:07;15.57;;;2.80;;
52564;SDS011;38460;53.106;7.004;2023-08-07T10:58:35;6.95;;;2.67;;
52564;SDS011;38460;53.106;7.004;2023-08-07T11:01:40;10.38;;;2.40;;
52564;SDS011;38460;53.106;7.004;2023-08-07T11:04:02;5.28;;;2.08;;
52564;SDS011;38460;53.106;7.004;2023-08-07T11:06:35;9.55;;;3.00;;
52564;SDS011;38460;53.106;7.004;2023-08-07T11:09:05;12.00;;;2.55;;
52564;SDS011;38460;53.106;7.004;2023-08-07T11:14:09;5.22;;;2.60;;
52564;SDS011;38460;53.106;7.004;2023-08-07T11:16:42;9.02;;;2.28;;
52564;SDS011;38460;53.106;7.004;2023-08-07T11:19:08;8.50;;;2.33;;
52564;SDS011;38460;53.106;7.004;2023-08-07T11:21:34;5.43;;;2.47;;
52564;SDS011;38460;53.106;7.004;2023-08-07T11:24:01;6.68;;;2.30;;
52564;SDS011;38460;53.106;7.004;2023-08-07T11:26:27;4.50;;;1.70;;
52564;SDS011;38460;53.106;7.004;2023-08-07T11:28:54;7.22;;;2.15;;
52564;SDS011;38460;53.106;7.004;2023-08-07T11:31:20;4.65;;;1.73;;
52564;SDS011;38460;53.106;7.004;2023-08-07T11:33:52;6.20;;;2.40;;
52564;SDS011;38460;53.106;7.004;2023-08-07T11:36:20;3.60;;;1.33;;
52564;SDS011;38460;53.106;7.004;2023-08-07T11:38:46;4.47;;;1.80;;
52564;SDS011;38460;53.106;7.004;2023-08-07T11:41:13;4.45;;;1.90;;
52564;SDS011;38460;53.106;7.004;2023-08-07T11:43:40;6.00;;;1.60;;
52564;SDS011;38460;53.106;7.004;2023-08-07T11:46:07;7.93;;;2.03;;
52564;SDS011;38460;53.106;7.004;2023-08-07T11:48:35;7.53;;;2.05;;
52564;SDS011;38460;53.106;7.004;2023-08-07T11:51:03;7.85;;;2.10;;
52564;SDS011;38460;53.106;7.004;2023-08-07T11:53:31;6.13;;;2.13;;
52564;SDS011;38460;53.106;7.004;2023-08-07T11:55:58;8.65;;;2.38;;
52564;SDS011;38460;53.106;7.004;2023-08-07T11:58:33;5.65;;;2.22;;
52564;SDS011;38460;53.106;7.004;2023-08-07T12:01:09;7.07;;;2.30;;
52564;SDS011;38460;53.106;7.004;2023-08-07T12:03:36;7.38;;;2.28;;
52564;SDS011;38460;53.106;7.004;2023-08-07T12:06:06;4.68;;;2.03;;
52564;SDS011;38460;53.106;7.004;2023-08-07T12:08:36;6.97;;;2.30;;
52564;SDS011;38460;53.106;7.004;2023-08-07T12:11:04;4.70;;;2.30;;
52564;SDS011;38460;53.106;7.004;2023-08-07T12:13:37;3.35;;;1.70;;
52564;SDS011;38460;53.106;7.004;2023-08-07T12:16:05;11.23;;;2.03;;
52564;SDS011;38460;53.106;7.004;2023-08-07T12:18:31;6.95;;;1.95;;
52564;SDS011;38460;53.106;7.004;2023-08-07T12:21:01;4.07;;;1.73;;
52564;SDS011;38460;53.106;7.004;2023-08-07T12:25:57;5.63;;;1.52;;
52564;SDS011;38460;53.106;7.004;2023-08-07T12:28:26;4.65;;;1.83;;
52564;SDS011;38460;53.106;7.004;2023-08-07T12:30:52;3.85;;;1.35;;
52564;SDS011;38460;53.106;7.004;2023-08-07T12:33:18;6.05;;;1.58;;
52564;SDS011;38460;53.106;7.004;2023-08-07T12:35:44;6.05;;;1.88;;
52564;SDS011;38460;53.106;7.004;2023-08-07T12:38:10;4.57;;;1.90;;
52564;SDS011;38460;53.106;7.004;2023-08-07T12:40:38;6.57;;;1.80;;
52564;SDS011;38460;53.106;7.004;2023-08-07T12:43:04;5.20;;;2.13;;
52564;SDS011;38460;53.106;7.004;2023-08-07T12:45:30;3.22;;;1.48;;
52564;SDS011;38460;53.106;7.004;2023-08-07T12:47:57;4.43;;;1.58;;
52564;SDS011;38460;53.106;7.004;2023-08-07T12:50:24;9.70;;;2.00;;
52564;SDS011;38460;53.106;7.004;2023-08-07T12:52:50;4.25;;;1.70;;
52564;SDS011;38460;53.106;7.004;2023-08-07T12:55:16;6.25;;;1.92;;
52564;SDS011;38460;53.106;7.004;2023-08-07T12:57:42;6.38;;;1.83;;
52564;SDS011;38460;53.106;7.004;2023-08-07T13:00:09;5.65;;;1.90;;
52564;SDS011;38460;53.106;7.004;2023-08-07T13:02:38;7.28;;;2.20;;
52564;SDS011;38460;53.106;7.004;2023-08-07T13:05:05;5.93;;;1.98;;
52564;SDS011;38460;53.106;7.004;2023-08-07T13:07:31;4.03;;;1.75;;
52564;SDS011;38460;53.106;7.004;2023-08-07T13:09:56;4.82;;;1.70;;
52564;SDS011;38460;53.106;7.004;2023-08-07T13:12:22;6.40;;;2.25;;
52564;SDS011;38460;53.106;7.004;2023-08-07T13:14:48;7.50;;;1.88;;
52564;SDS011;38460;53.106;7.004;2023-08-07T13:17:14;5.20;;;1.88;;
52564;SDS011;38460;53.106;7.004;2023-08-07T13:19:39;7.32;;;2.05;;
52564;SDS011;38460;53.106;7.004;2023-08-07T13:22:06;5.57;;;1.90;;
52564;SDS011;38460;53.106;7.004;2023-08-07T13:24:32;5.93;;;1.85;;
52564;SDS011;38460;53.106;7.004;2023-08-07T13:26:58;6.47;;;2.05;;
52564;SDS011;38460;53.106;7.004;2023-08-07T13:29:23;9.27;;;2.25;;
52564;SDS011;38460;53.106;7.004;2023-08-07T13:31:51;3.83;;;1.55;;
52564;SDS011;38460;53.106;7.004;2023-08-07T13:34:16;5.03;;;2.00;;
52564;SDS011;38460;53.106;7.004;2023-08-07T13:36:42;4.78;;;1.60;;
52564;SDS011;38460;53.106;7.004;2023-08-07T13:39:08;6.85;;;1.77;;
52564;SDS011;38460;53.106;7.004;2023-08-07T13:41:34;7.18;;;2.08;;
52564;SDS011;38460;53.106;7.004;2023-08-07T13:43:59;5.93;;;1.80;;
52564;SDS011;38460;53.106;7.004;2023-08-07T13:46:25;6.75;;;1.90;;
52564;SDS011;38460;53.106;7.004;2023-08-07T13:48:51;6.25;;;2.50;;
52564;SDS011;38460;53.106;7.004;2023-08-07T13:51:17;6.63;;;2.10;;
52564;SDS011;38460;53.106;7.004;2023-08-07T13:53:43;6.97;;;2.47;;
52564;SDS011;38460;53.106;7.004;2023-08-07T13:56:09;5.70;;;2.00;;
52564;SDS011;38460;53.106;7.004;2023-08-07T13:58:38;9.75;;;2.90;;
52564;SDS011;38460;53.106;7.004;2023-08-07T14:01:04;6.97;;;2.20;;
52564;SDS011;38460;53.106;7.004;2023-08-07T14:03:30;7.45;;;2.55;;
52564;SDS011;38460;53.106;7.004;2023-08-07T14:05:56;6.97;;;2.10;;
52564;SDS011;38460;53.106;7.004;2023-08-07T14:08:22;6.07;;;2.83;;
52564;SDS011;38460;53.106;7.004;2023-08-07T14:10:47;8.70;;;2.80;;
52564;SDS011;38460;53.106;7.004;2023-08-07T14:13:13;5.75;;;2.15;;
52564;SDS011;38460;53.106;7.004;2023-08-07T14:15:39;6.60;;;2.10;;
52564;SDS011;38460;53.106;7.004;2023-08-07T14:18:05;8.73;;;2.60;;
52564;SDS011;38460;53.106;7.004;2023-08-07T14:20:31;4.18;;;2.00;;
52564;SDS011;38460;53.106;7.004;2023-08-07T14:22:57;5.63;;;2.10;;
52564;SDS011;38460;53.106;7.004;2023-08-07T14:25:23;8.27;;;2.97;;
52564;SDS011;38460;53.106;7.004;2023-08-07T14:27:49;9.50;;;2.78;;
52564;SDS011;38460;53.106;7.004;2023-08-07T14:30:15;6.80;;;2.00;;
52564;SDS011;38460;53.106;7.004;2023-08-07T14:32:41;5.95;;;2.33;;
52564;SDS011;38460;53.106;7.004;2023-08-07T14:35:12;6.80;;;2.35;;
52564;SDS011;38460;53.106;7.004;2023-08-07T14:37:39;7.13;;;2.05;;
52564;SDS011;38460;53.106;7.004;2023-08-07T14:40:05;5.13;;;2.45;;
52564;SDS011;38460;53.106;7.004;2023-08-07T14:42:33;7.97;;;2.60;;
52564;SDS011;38460;53.106;7.004;2023-08-07T14:44:59;6.07;;;2.50;;
52564;SDS011;38460;53.106;7.004;2023-08-07T14:47:25;7.07;;;2.13;;
52564;SDS011;38460;53.106;7.004;2023-08-07T14:49:51;5.63;;;2.10;;
52564;SDS011;38460;53.106;7.004;2023-08-07T14:52:17;4.05;;;2.25;;
52564;SDS011;38460;53.106;7.004;2023-08-07T14:54:43;5.22;;;2.22;;
52564;SDS011;38460;53.106;7.004;2023-08-07T14:57:09;6.38;;;2.30;;